sensor_id;sensor_type;location;lat;lon;timestamp;pressure;altitude;pressure_sealevel;temperature;humidity
79142;BME280;68550;-26.480;29.234;2023-08-06T00:00:09;85349.30;;;18.26;27.73
79142;BME280;68550;-26.480;29.234;2023-08-06T00:02:32;85348.56;;;17.98;27.75
79142;BME280;68550;-26.480;29.234;2023-08-06T00:07:22;85345.29;;;18.22;27.79
79142;BME280;68550;-26.480;29.234;2023-08-06T00:09:47;85345.77;;;18.32;27.60
79142;BME280;68550;-26.480;29.234;2023-08-06T00:12:13;85345.05;;;18.50;27.76
79142;BME280;68550;-26.480;29.234;2023-08-06T00:14:38;85343.81;;;18.02;27.64
79142;BME280;68550;-26.480;29.234;2023-08-06T00:17:04;85341.81;;;18.33;27.56
79142;BME280;68550;-26.480;29.234;2023-08-06T00:36:48;85327.19;;;17.57;27.95
79142;BME280;68550;-26.480;29.234;2023-08-06T00:39:13;85319.50;;;18.01;27.82
79142;BME280;68550;-26.480;29.234;2023-08-06T00:41:38;85320.72;;;18.16;27.73
79142;BME280;68550;-26.480;29.234;2023-08-06T00:44:03;85319.24;;;18.19;27.63
79142;BME280;68550;-26.480;29.234;2023-08-06T00:46:28;85315.38;;;18.16;27.72
79142;BME280;68550;-26.480;29.234;2023-08-06T00:48:54;85312.31;;;18.41;27.66
79142;BME280;68550;-26.480;29.234;2023-08-06T00:51:20;85312.70;;;18.35;27.88
79142;BME280;68550;-26.480;29.234;2023-08-06T00:53:45;85317.25;;;18.16;27.83
79142;BME280;68550;-26.480;29.234;2023-08-06T00:56:11;85314.12;;;18.12;27.88
79142;BME280;68550;-26.480;29.234;2023-08-06T00:58:36;85309.71;;;18.09;27.67
79142;BME280;68550;-26.480;29.234;2023-08-06T01:01:01;85312.29;;;18.07;27.63
79142;BME280;68550;-26.480;29.234;2023-08-06T01:03:28;85311.54;;;18.04;27.54
79142;BME280;68550;-26.480;29.234;2023-08-06T01:05:51;85310.43;;;18.27;27.49
79142;BME280;68550;-26.480;29.234;2023-08-06T01:08:24;85306.91;;;18.08;27.31
79142;BME280;68550;-26.480;29.234;2023-08-06T01:10:51;85306.93;;;18.26;27.28
79142;BME280;68550;-26.480;29.234;2023-08-06T01:13:16;85309.68;;;18.15;27.49
79142;BME280;68550;-26.480;29.234;2023-08-06T01:15:38;85308.68;;;18.04;27.58
79142;BME280;68550;-26.480;29.234;2023-08-06T01:17:59;85304.47;;;17.97;27.54
79142;BME280;68550;-26.480;29.234;2023-08-06T01:20:28;85306.48;;;17.96;27.66
79142;BME280;68550;-26.480;29.234;2023-08-06T01:22:49;85301.39;;;17.91;27.65
79142;BME280;68550;-26.480;29.234;2023-08-06T01:25:16;85294.67;;;18.11;27.70
79142;BME280;68550;-26.480;29.234;2023-08-06T01:27:46;85288.54;;;17.98;27.63
79142;BME280;68550;-26.480;29.234;2023-08-06T01:30:12;85283.62;;;17.91;27.56
79142;BME280;68550;-26.480;29.234;2023-08-06T01:32:34;85281.58;;;17.89;27.72
79142;BME280;68550;-26.480;29.234;2023-08-06T01:34:57;85277.54;;;17.95;27.63
79142;BME280;68550;-26.480;29.234;2023-08-06T01:37:21;85274.93;;;17.93;27.59
79142;BME280;68550;-26.480;29.234;2023-08-06T01:39:49;85276.05;;;18.23;27.62
79142;BME280;68550;-26.480;29.234;2023-08-06T01:42:12;85275.99;;;17.99;27.64
79142;BME280;68550;-26.480;29.234;2023-08-06T01:44:38;85280.60;;;17.94;27.42
79142;BME280;68550;-26.480;29.234;2023-08-06T01:47:04;85277.36;;;18.03;27.27
79142;BME280;68550;-26.480;29.234;2023-08-06T01:49:31;85275.74;;;17.86;27.24
79142;BME280;68550;-26.480;29.234;2023-08-06T01:51:57;85277.41;;;18.01;27.19
79142;BME280;68550;-26.480;29.234;2023-08-06T01:54:19;85276.43;;;17.98;27.38
79142;BME280;68550;-26.480;29.234;2023-08-06T01:56:44;85275.56;;;18.00;27.38
79142;BME280;68550;-26.480;29.234;2023-08-06T01:59:10;85277.56;;;17.83;27.54
79142;BME280;68550;-26.480;29.234;2023-08-06T02:01:35;85278.77;;;17.89;27.49
79142;BME280;68550;-26.480;29.234;2023-08-06T02:04:00;85280.57;;;18.10;27.62
79142;BME280;68550;-26.480;29.234;2023-08-06T02:06:26;85287.30;;;17.86;27.54
79142;BME280;68550;-26.480;29.234;2023-08-06T02:08:51;85288.31;;;18.11;27.50
79142;BME280;68550;-26.480;29.234;2023-08-06T02:13:41;85288.81;;;17.95;27.47
79142;BME280;68550;-26.480;29.234;2023-08-06T02:16:08;85291.56;;;17.81;27.55
79142;BME280;68550;-26.480;29.234;2023-08-06T02:18:35;85295.87;;;17.96;27.60
79142;BME280;68550;-26.480;29.234;2023-08-06T02:20:58;85294.51;;;17.91;27.47
79142;BME280;68550;-26.480;29.234;2023-08-06T02:23:22;85295.83;;;18.11;27.52
79142;BME280;68550;-26.480;29.234;2023-08-06T02:25:48;85298.49;;;17.83;27.41
79142;BME280;68550;-26.480;29.234;2023-08-06T02:28:13;85297.05;;;18.04;27.27
79142;BME280;68550;-26.480;29.234;2023-08-06T02:30:39;85299.56;;;18.23;27.32
79142;BME280;68550;-26.480;29.234;2023-08-06T02:33:04;85301.59;;;17.80;27.24
79142;BME280;68550;-26.480;29.234;2023-08-06T02:35:30;85299.10;;;17.97;27.24
79142;BME280;68550;-26.480;29.234;2023-08-06T02:37:55;85300.89;;;17.97;27.25
79142;BME280;68550;-26.480;29.234;2023-08-06T02:40:21;85303.48;;;17.66;27.55
79142;BME280;68550;-26.480;29.234;2023-08-06T02:42:47;85305.78;;;17.88;27.60
79142;BME280;68550;-26.480;29.234;2023-08-06T02:45:13;85307.19;;;17.61;27.59
79142;BME280;68550;-26.480;29.234;2023-08-06T02:47:38;85309.75;;;17.93;27.72
79142;BME280;68550;-26.480;29.234;2023-08-06T02:50:04;85314.28;;;17.82;27.83
79142;BME280;68550;-26.480;29.234;2023-08-06T02:52:29;85313.34;;;17.72;27.74
79142;BME280;68550;-26.480;29.234;2023-08-06T02:54:54;85315.98;;;17.70;27.81
79142;BME280;68550;-26.480;29.234;2023-08-06T02:57:20;85318.73;;;17.74;27.68
79142;BME280;68550;-26.480;29.234;2023-08-06T02:59:45;85322.93;;;17.48;27.80
79142;BME280;68550;-26.480;29.234;2023-08-06T03:02:13;85318.89;;;17.58;27.69
79142;BME280;68550;-26.480;29.234;2023-08-06T03:04:37;85317.73;;;17.37;27.73
79142;BME280;68550;-26.480;29.234;2023-08-06T03:07:02;85317.50;;;17.71;27.66
79142;BME280;68550;-26.480;29.234;2023-08-06T03:09:27;85324.44;;;17.58;27.75
79142;BME280;68550;-26.480;29.234;2023-08-06T03:11:53;85319.86;;;17.71;27.57
79142;BME280;68550;-26.480;29.234;2023-08-06T03:14:19;85322.50;;;17.65;27.43
79142;BME280;68550;-26.480;29.234;2023-08-06T03:16:44;85322.31;;;17.98;27.34
79142;BME280;68550;-26.480;29.234;2023-08-06T03:19:09;85322.94;;;17.95;27.33
79142;BME280;68550;-26.480;29.234;2023-08-06T03:21:34;85322.24;;;17.78;27.28
79142;BME280;68550;-26.480;29.234;2023-08-06T03:23:59;85323.07;;;17.74;27.41
79142;BME280;68550;-26.480;29.234;2023-08-06T03:26:24;85326.55;;;17.75;27.34
79142;BME280;68550;-26.480;29.234;2023-08-06T03:28:50;85328.59;;;17.73;27.22
79142;BME280;68550;-26.480;29.234;2023-08-06T03:31:15;85330.91;;;17.68;27.22
79142;BME280;68550;-26.480;29.234;2023-08-06T03:33:41;85329.71;;;17.71;27.16
79142;BME280;68550;-26.480;29.234;2023-08-06T03:36:06;85332.81;;;17.63;27.25
79142;BME280;68550;-26.480;29.234;2023-08-06T03:38:32;85332.84;;;17.70;27.19
79142;BME280;68550;-26.480;29.234;2023-08-06T03:41:00;85333.41;;;17.98;27.21
79142;BME280;68550;-26.480;29.234;2023-08-06T03:43:24;85336.44;;;17.42;27.25
79142;BME280;68550;-26.480;29.234;2023-08-06T03:45:48;85335.98;;;17.44;27.21
79142;BME280;68550;-26.480;29.234;2023-08-06T03:48:15;85335.13;;;17.75;27.08
79142;BME280;68550;-26.480;29.234;2023-08-06T03:50:39;85332.98;;;17.71;27.13
79142;BME280;68550;-26.480;29.234;2023-08-06T03:53:05;85337.15;;;17.48;27.13
79142;BME280;68550;-26.480;29.234;2023-08-06T03:55:30;85337.25;;;17.88;27.28
79142;BME280;68550;-26.480;29.234;2023-08-06T03:57:55;85333.62;;;17.64;27.14
79142;BME280;68550;-26.480;29.234;2023-08-06T04:00:21;85335.73;;;17.72;27.15
79142;BME280;68550;-26.480;29.234;2023-08-06T04:02:46;85335.91;;;17.69;27.20
79142;BME280;68550;-26.480;29.234;2023-08-06T04:05:12;85335.07;;;17.54;27.33
79142;BME280;68550;-26.480;29.234;2023-08-06T04:07:37;85332.69;;;17.60;27.32
79142;BME280;68550;-26.480;29.234;2023-08-06T04:10:04;85334.81;;;17.48;27.27
79142;BME280;68550;-26.480;29.234;2023-08-06T04:12:33;85336.76;;;17.54;27.39
79142;BME280;68550;-26.480;29.234;2023-08-06T04:14:54;85341.45;;;17.66;27.17
79142;BME280;68550;-26.480;29.234;2023-08-06T04:17:19;85344.04;;;17.58;27.21
79142;BME280;68550;-26.480;29.234;2023-08-06T04:19:44;85345.20;;;17.50;27.40
79142;BME280;68550;-26.480;29.234;2023-08-06T04:22:10;85345.85;;;17.42;27.44
79142;BME280;68550;-26.480;29.234;2023-08-06T04:24:36;85346.73;;;17.46;27.37
79142;BME280;68550;-26.480;29.234;2023-08-06T04:27:01;85341.85;;;17.46;27.41
79142;BME280;68550;-26.480;29.234;2023-08-06T04:29:26;85346.74;;;17.48;27.47
79142;BME280;68550;-26.480;29.234;2023-08-06T04:31:52;85343.01;;;17.31;27.53
79142;BME280;68550;-26.480;29.234;2023-08-06T04:34:17;85342.09;;;17.62;27.35
79142;BME280;68550;-26.480;29.234;2023-08-06T04:36:43;85344.65;;;17.67;27.16
79142;BME280;68550;-26.480;29.234;2023-08-06T04:39:08;85347.59;;;17.58;27.11
79142;BME280;68550;-26.480;29.234;2023-08-06T04:41:33;85350.74;;;17.37;27.08
79142;BME280;68550;-26.480;29.234;2023-08-06T04:43:59;85349.17;;;17.59;27.02
79142;BME280;68550;-26.480;29.234;2023-08-06T04:46:24;85350.40;;;17.69;26.88
79142;BME280;68550;-26.480;29.234;2023-08-06T04:48:51;85351.66;;;17.32;27.01
79142;BME280;68550;-26.480;29.234;2023-08-06T04:51:15;85352.64;;;17.61;27.02
79142;BME280;68550;-26.480;29.234;2023-08-06T04:53:41;85355.31;;;17.58;27.10
79142;BME280;68550;-26.480;29.234;2023-08-06T04:56:06;85354.22;;;17.62;27.03
79142;BME280;68550;-26.480;29.234;2023-08-06T04:58:32;85355.90;;;17.35;26.99
79142;BME280;68550;-26.480;29.234;2023-08-06T05:00:57;85357.71;;;17.56;27.19
79142;BME280;68550;-26.480;29.234;2023-08-06T05:03:23;85355.05;;;17.21;27.86
79142;BME280;68550;-26.480;29.234;2023-08-06T05:05:48;85357.23;;;17.51;27.69
79142;BME280;68550;-26.480;29.234;2023-08-06T05:08:15;85358.69;;;17.36;27.84
79142;BME280;68550;-26.480;29.234;2023-08-06T05:10:38;85360.55;;;17.22;27.60
79142;BME280;68550;-26.480;29.234;2023-08-06T05:13:04;85362.97;;;17.19;27.79
79142;BME280;68550;-26.480;29.234;2023-08-06T05:15:30;85365.89;;;17.32;27.79
79142;BME280;68550;-26.480;29.234;2023-08-06T05:17:55;85368.50;;;17.14;27.68
79142;BME280;68550;-26.480;29.234;2023-08-06T05:20:21;85367.40;;;16.27;26.41
79142;BME280;68550;-26.480;29.234;2023-08-06T05:22:46;85374.00;;;16.55;27.34
79142;BME280;68550;-26.480;29.234;2023-08-06T05:25:17;85373.09;;;16.70;27.75
79142;BME280;68550;-26.480;29.234;2023-08-06T05:27:37;85373.30;;;17.00;27.46
79142;BME280;68550;-26.480;29.234;2023-08-06T05:30:02;85372.42;;;17.10;27.29
79142;BME280;68550;-26.480;29.234;2023-08-06T05:32:28;85371.88;;;17.10;27.21
79142;BME280;68550;-26.480;29.234;2023-08-06T05:34:53;85373.32;;;17.04;27.28
79142;BME280;68550;-26.480;29.234;2023-08-06T05:37:19;85377.07;;;17.12;27.29
79142;BME280;68550;-26.480;29.234;2023-08-06T05:39:44;85378.37;;;17.05;27.42
79142;BME280;68550;-26.480;29.234;2023-08-06T05:42:10;85380.35;;;17.28;27.26
79142;BME280;68550;-26.480;29.234;2023-08-06T05:44:35;85380.60;;;17.27;27.22
79142;BME280;68550;-26.480;29.234;2023-08-06T05:47:00;85384.74;;;17.28;27.28
79142;BME280;68550;-26.480;29.234;2023-08-06T05:49:26;85385.88;;;17.13;27.20
79142;BME280;68550;-26.480;29.234;2023-08-06T05:51:52;85386.94;;;17.42;27.17
79142;BME280;68550;-26.480;29.234;2023-08-06T05:54:17;85384.98;;;17.41;27.26
79142;BME280;68550;-26.480;29.234;2023-08-06T05:56:41;85379.24;;;17.46;27.24
79142;BME280;68550;-26.480;29.234;2023-08-06T05:59:09;85381.30;;;17.53;27.17
79142;BME280;68550;-26.480;29.234;2023-08-06T06:01:33;85386.14;;;17.28;27.26
79142;BME280;68550;-26.480;29.234;2023-08-06T06:04:00;85386.25;;;17.65;27.14
79142;BME280;68550;-26.480;29.234;2023-08-06T06:06:23;85385.88;;;17.67;27.14
79142;BME280;68550;-26.480;29.234;2023-08-06T06:08:48;85387.52;;;17.33;27.28
79142;BME280;68550;-26.480;29.234;2023-08-06T06:11:14;85385.62;;;17.38;27.30
79142;BME280;68550;-26.480;29.234;2023-08-06T06:13:39;85384.05;;;17.52;27.22
79142;BME280;68550;-26.480;29.234;2023-08-06T06:16:05;85386.69;;;17.74;27.31
79142;BME280;68550;-26.480;29.234;2023-08-06T06:18:30;85386.06;;;17.58;27.31
79142;BME280;68550;-26.480;29.234;2023-08-06T06:20:55;85384.63;;;17.68;27.29
79142;BME280;68550;-26.480;29.234;2023-08-06T06:23:20;85385.89;;;17.97;27.31
79142;BME280;68550;-26.480;29.234;2023-08-06T06:25:48;85385.79;;;17.76;27.31
79142;BME280;68550;-26.480;29.234;2023-08-06T06:28:13;85386.67;;;17.70;27.41
79142;BME280;68550;-26.480;29.234;2023-08-06T06:30:37;85389.94;;;17.75;27.44
79142;BME280;68550;-26.480;29.234;2023-08-06T06:33:02;85395.77;;;17.59;27.42
79142;BME280;68550;-26.480;29.234;2023-08-06T06:35:28;85397.52;;;17.62;27.42
79142;BME280;68550;-26.480;29.234;2023-08-06T06:37:53;85398.72;;;17.80;27.52
79142;BME280;68550;-26.480;29.234;2023-08-06T06:40:22;85402.73;;;18.15;27.49
79142;BME280;68550;-26.480;29.234;2023-08-06T06:42:45;85403.84;;;17.91;27.54
79142;BME280;68550;-26.480;29.234;2023-08-06T06:45:10;85401.85;;;17.87;27.57
79142;BME280;68550;-26.480;29.234;2023-08-06T06:47:36;85402.53;;;17.71;27.59
79142;BME280;68550;-26.480;29.234;2023-08-06T06:50:01;85402.11;;;18.12;27.45
79142;BME280;68550;-26.480;29.234;2023-08-06T06:52:31;85404.08;;;18.16;27.45
79142;BME280;68550;-26.480;29.234;2023-08-06T06:54:53;85405.23;;;17.92;27.49
79142;BME280;68550;-26.480;29.234;2023-08-06T06:57:17;85405.63;;;17.94;27.51
79142;BME280;68550;-26.480;29.234;2023-08-06T06:59:43;85404.77;;;18.08;27.44
79142;BME280;68550;-26.480;29.234;2023-08-06T07:05:29;85407.05;;;16.21;29.59
79142;BME280;68550;-26.480;29.234;2023-08-06T07:14:31;85405.60;;;18.15;27.66
79142;BME280;68550;-26.480;29.234;2023-08-06T07:16:58;85409.45;;;18.30;27.56
79142;BME280;68550;-26.480;29.234;2023-08-06T07:19:22;85412.64;;;18.02;27.60
79142;BME280;68550;-26.480;29.234;2023-08-06T07:21:47;85409.03;;;18.26;27.63
79142;BME280;68550;-26.480;29.234;2023-08-06T07:24:13;85413.82;;;18.22;27.70
79142;BME280;68550;-26.480;29.234;2023-08-06T07:26:38;85415.69;;;18.25;27.69
79142;BME280;68550;-26.480;29.234;2023-08-06T07:29:04;85415.18;;;18.57;27.63
79142;BME280;68550;-26.480;29.234;2023-08-06T07:31:29;85412.31;;;18.36;27.62
79142;BME280;68550;-26.480;29.234;2023-08-06T07:33:55;85413.16;;;18.41;27.64
79142;BME280;68550;-26.480;29.234;2023-08-06T07:36:20;85411.13;;;18.42;27.65
79142;BME280;68550;-26.480;29.234;2023-08-06T07:38:45;85413.45;;;18.49;27.66
79142;BME280;68550;-26.480;29.234;2023-08-06T07:41:11;85411.05;;;18.48;27.70
79142;BME280;68550;-26.480;29.234;2023-08-06T07:43:37;85415.99;;;18.55;27.65
79142;BME280;68550;-26.480;29.234;2023-08-06T07:46:02;85413.53;;;18.57;27.66
79142;BME280;68550;-26.480;29.234;2023-08-06T07:48:27;85414.41;;;18.63;27.64
79142;BME280;68550;-26.480;29.234;2023-08-06T07:50:55;85415.48;;;18.61;27.66
79142;BME280;68550;-26.480;29.234;2023-08-06T07:53:18;85411.81;;;18.90;27.64
79142;BME280;68550;-26.480;29.234;2023-08-06T07:55:49;85411.02;;;18.64;27.70
79142;BME280;68550;-26.480;29.234;2023-08-06T07:58:10;85409.18;;;18.61;27.76
79142;BME280;68550;-26.480;29.234;2023-08-06T08:03:13;85404.94;;;18.43;27.75
79142;BME280;68550;-26.480;29.234;2023-08-06T08:19:56;85393.39;;;18.50;27.58
79142;BME280;68550;-26.480;29.234;2023-08-06T08:27:13;85396.37;;;18.74;27.72
79142;BME280;68550;-26.480;29.234;2023-08-06T08:36:57;85385.16;;;18.89;27.70
79142;BME280;68550;-26.480;29.234;2023-08-06T08:39:20;85384.81;;;18.70;27.88
79142;BME280;68550;-26.480;29.234;2023-08-06T08:41:46;85382.37;;;18.79;27.82
79142;BME280;68550;-26.480;29.234;2023-08-06T08:44:11;85380.03;;;19.09;27.78
79142;BME280;68550;-26.480;29.234;2023-08-06T08:46:39;85377.96;;;18.75;27.88
79142;BME280;68550;-26.480;29.234;2023-08-06T08:49:03;85375.71;;;18.96;27.93
79142;BME280;68550;-26.480;29.234;2023-08-06T08:51:28;85372.73;;;18.99;27.94
79142;BME280;68550;-26.480;29.234;2023-08-06T08:53:54;85373.28;;;18.73;27.97
79142;BME280;68550;-26.480;29.234;2023-08-06T09:05:06;85360.26;;;18.52;28.13
79142;BME280;68550;-26.480;29.234;2023-08-06T09:07:34;85359.79;;;19.10;28.07
79142;BME280;68550;-26.480;29.234;2023-08-06T09:09:57;85357.58;;;18.63;28.02
79142;BME280;68550;-26.480;29.234;2023-08-06T09:12:22;85351.93;;;18.94;27.98
79142;BME280;68550;-26.480;29.234;2023-08-06T09:14:50;85348.66;;;18.63;28.08
79142;BME280;68550;-26.480;29.234;2023-08-06T09:17:12;85343.49;;;18.92;28.03
79142;BME280;68550;-26.480;29.234;2023-08-06T09:19:37;85339.47;;;18.81;28.18
79142;BME280;68550;-26.480;29.234;2023-08-06T09:22:02;85333.54;;;18.99;28.28
79142;BME280;68550;-26.480;29.234;2023-08-06T09:24:27;85335.53;;;18.89;28.23
79142;BME280;68550;-26.480;29.234;2023-08-06T09:26:55;85330.64;;;19.03;28.35
79142;BME280;68550;-26.480;29.234;2023-08-06T09:29:19;85326.33;;;18.94;28.27
79142;BME280;68550;-26.480;29.234;2023-08-06T09:31:45;85323.27;;;18.72;28.26
79142;BME280;68550;-26.480;29.234;2023-08-06T09:34:12;85321.28;;;18.70;28.31
79142;BME280;68550;-26.480;29.234;2023-08-06T09:36:33;85316.44;;;18.72;28.32
79142;BME280;68550;-26.480;29.234;2023-08-06T09:38:59;85307.94;;;18.96;28.37
79142;BME280;68550;-26.480;29.234;2023-08-06T09:41:28;85310.36;;;18.74;28.37
79142;BME280;68550;-26.480;29.234;2023-08-06T09:43:50;85308.06;;;19.17;28.39
79142;BME280;68550;-26.480;29.234;2023-08-06T09:46:15;85296.21;;;18.69;28.41
79142;BME280;68550;-26.480;29.234;2023-08-06T09:48:44;85289.95;;;18.71;28.40
79142;BME280;68550;-26.480;29.234;2023-08-06T09:51:07;85278.81;;;18.97;28.40
79142;BME280;68550;-26.480;29.234;2023-08-06T09:53:37;85275.23;;;19.05;28.37
79142;BME280;68550;-26.480;29.234;2023-08-06T09:55:58;85272.24;;;19.18;28.51
79142;BME280;68550;-26.480;29.234;2023-08-06T09:58:24;85270.97;;;18.74;28.45
79142;BME280;68550;-26.480;29.234;2023-08-06T10:00:48;85267.65;;;18.77;28.45
79142;BME280;68550;-26.480;29.234;2023-08-06T10:03:14;85265.84;;;19.16;28.56
79142;BME280;68550;-26.480;29.234;2023-08-06T10:05:41;85262.36;;;18.68;28.54
79142;BME280;68550;-26.480;29.234;2023-08-06T10:08:08;85257.42;;;18.98;28.54
79142;BME280;68550;-26.480;29.234;2023-08-06T10:10:32;85249.38;;;18.81;28.55
79142;BME280;68550;-26.480;29.234;2023-08-06T10:12:58;85247.00;;;18.79;28.54
79142;BME280;68550;-26.480;29.234;2023-08-06T10:15:24;85245.18;;;19.03;28.64
79142;BME280;68550;-26.480;29.234;2023-08-06T10:17:48;85242.54;;;18.86;28.57
79142;BME280;68550;-26.480;29.234;2023-08-06T10:20:12;85238.94;;;18.88;28.57
79142;BME280;68550;-26.480;29.234;2023-08-06T10:22:37;85233.58;;;18.86;28.52
79142;BME280;68550;-26.480;29.234;2023-08-06T10:25:03;85233.96;;;18.77;28.54
79142;BME280;68550;-26.480;29.234;2023-08-06T10:27:30;85230.00;;;18.88;28.26
79142;BME280;68550;-26.480;29.234;2023-08-06T10:29:53;85226.79;;;19.14;28.46
79142;BME280;68550;-26.480;29.234;2023-08-06T10:32:20;85223.67;;;18.86;28.55
79142;BME280;68550;-26.480;29.234;2023-08-06T10:34:54;85219.50;;;19.11;28.53
79142;BME280;68550;-26.480;29.234;2023-08-06T10:37:10;85213.60;;;18.67;28.56
79142;BME280;68550;-26.480;29.234;2023-08-06T10:39:33;85207.97;;;18.89;28.59
79142;BME280;68550;-26.480;29.234;2023-08-06T10:41:59;85207.12;;;18.89;28.59
79142;BME280;68550;-26.480;29.234;2023-08-06T10:44:24;85205.08;;;19.11;28.66
79142;BME280;68550;-26.480;29.234;2023-08-06T10:46:49;85197.99;;;19.13;28.65
79142;BME280;68550;-26.480;29.234;2023-08-06T10:49:19;85191.60;;;18.91;28.66
79142;BME280;68550;-26.480;29.234;2023-08-06T10:51:40;85185.78;;;18.89;28.72
79142;BME280;68550;-26.480;29.234;2023-08-06T10:54:06;85180.09;;;19.45;28.68
79142;BME280;68550;-26.480;29.234;2023-08-06T10:56:32;85180.30;;;19.14;28.75
79142;BME280;68550;-26.480;29.234;2023-08-06T10:58:58;85177.02;;;18.98;28.69
79142;BME280;68550;-26.480;29.234;2023-08-06T11:01:24;85173.03;;;19.23;28.68
79142;BME280;68550;-26.480;29.234;2023-08-06T11:03:50;85165.59;;;19.01;28.66
79142;BME280;68550;-26.480;29.234;2023-08-06T11:06:19;85161.17;;;19.25;28.65
79142;BME280;68550;-26.480;29.234;2023-08-06T11:08:49;85157.12;;;18.90;28.79
79142;BME280;68550;-26.480;29.234;2023-08-06T11:11:09;85156.12;;;18.94;28.75
79142;BME280;68550;-26.480;29.234;2023-08-06T11:13:31;85153.92;;;19.01;28.69
79142;BME280;68550;-26.480;29.234;2023-08-06T11:15:57;85152.33;;;18.93;28.60
79142;BME280;68550;-26.480;29.234;2023-08-06T11:18:23;85149.49;;;19.24;28.68
79142;BME280;68550;-26.480;29.234;2023-08-06T11:20:47;85147.27;;;18.97;28.74
79142;BME280;68550;-26.480;29.234;2023-08-06T11:23:15;85142.92;;;18.95;28.80
79142;BME280;68550;-26.480;29.234;2023-08-06T11:25:44;85141.13;;;18.97;28.80
79142;BME280;68550;-26.480;29.234;2023-08-06T11:28:16;85141.05;;;18.99;28.82
79142;BME280;68550;-26.480;29.234;2023-08-06T11:30:30;85140.74;;;19.16;28.88
79142;BME280;68550;-26.480;29.234;2023-08-06T11:32:54;85138.84;;;19.18;28.68
79142;BME280;68550;-26.480;29.234;2023-08-06T11:35:21;85136.56;;;18.98;28.58
79142;BME280;68550;-26.480;29.234;2023-08-06T11:37:45;85133.59;;;19.01;28.70
79142;BME280;68550;-26.480;29.234;2023-08-06T11:40:11;85131.50;;;19.01;28.74
79142;BME280;68550;-26.480;29.234;2023-08-06T11:42:37;85131.57;;;18.99;28.80
79142;BME280;68550;-26.480;29.234;2023-08-06T11:45:03;85126.78;;;18.99;28.74
79142;BME280;68550;-26.480;29.234;2023-08-06T11:52:45;85114.26;;;19.08;28.44
79142;BME280;68550;-26.480;29.234;2023-08-06T11:57:18;85115.36;;;19.02;28.54
79142;BME280;68550;-26.480;29.234;2023-08-06T11:59:40;85117.93;;;19.06;28.50
79142;BME280;68550;-26.480;29.234;2023-08-06T12:55:20;85076.47;;;19.41;28.48
79142;BME280;68550;-26.480;29.234;2023-08-06T12:57:46;85083.86;;;19.29;28.60
79142;BME280;68550;-26.480;29.234;2023-08-06T13:00:11;85085.44;;;19.24;28.65
79142;BME280;68550;-26.480;29.234;2023-08-06T13:34:07;85074.82;;;19.40;28.58
79142;BME280;68550;-26.480;29.234;2023-08-06T13:36:33;85072.66;;;19.42;28.57
79142;BME280;68550;-26.480;29.234;2023-08-06T13:41:24;85069.55;;;19.36;28.65
79142;BME280;68550;-26.480;29.234;2023-08-06T13:43:52;85067.76;;;19.31;28.74
79142;BME280;68550;-26.480;29.234;2023-08-06T13:46:15;85067.69;;;19.35;28.71
79142;BME280;68550;-26.480;29.234;2023-08-06T13:48:41;85066.66;;;19.29;28.69
79142;BME280;68550;-26.480;29.234;2023-08-06T13:51:06;85067.29;;;19.28;28.73
79142;BME280;68550;-26.480;29.234;2023-08-06T14:25:03;85053.15;;;19.52;28.43
79142;BME280;68550;-26.480;29.234;2023-08-06T14:27:28;85053.95;;;19.56;28.44
79142;BME280;68550;-26.480;29.234;2023-08-06T14:29:53;85053.88;;;19.38;28.51
79142;BME280;68550;-26.480;29.234;2023-08-06T14:32:19;85052.46;;;19.38;28.57
79142;BME280;68550;-26.480;29.234;2023-08-06T14:34:45;85055.31;;;19.14;28.60
79142;BME280;68550;-26.480;29.234;2023-08-06T14:37:10;85058.09;;;19.40;28.58
79142;BME280;68550;-26.480;29.234;2023-08-06T15:20:47;85076.90;;;19.46;28.38
79142;BME280;68550;-26.480;29.234;2023-08-06T15:23:14;85078.26;;;19.47;28.37
79142;BME280;68550;-26.480;29.234;2023-08-06T15:25:38;85077.32;;;19.58;28.45
79142;BME280;68550;-26.480;29.234;2023-08-06T15:28:03;85074.88;;;19.44;28.61
79142;BME280;68550;-26.480;29.234;2023-08-06T15:30:28;85076.66;;;19.44;28.60
79142;BME280;68550;-26.480;29.234;2023-08-06T15:32:54;85074.38;;;19.39;28.64
79142;BME280;68550;-26.480;29.234;2023-08-06T15:40:11;85079.76;;;19.41;28.62
79142;BME280;68550;-26.480;29.234;2023-08-06T15:42:36;85080.57;;;19.49;28.56
79142;BME280;68550;-26.480;29.234;2023-08-06T15:45:01;85084.35;;;19.16;28.64
79142;BME280;68550;-26.480;29.234;2023-08-06T15:47:28;85087.15;;;19.38;28.68
79142;BME280;68550;-26.480;29.234;2023-08-06T15:49:52;85083.84;;;19.31;28.71
79142;BME280;68550;-26.480;29.234;2023-08-06T16:11:43;85087.45;;;19.45;28.48
79142;BME280;68550;-26.480;29.234;2023-08-06T16:14:08;85090.01;;;19.48;28.43
79142;BME280;68550;-26.480;29.234;2023-08-06T16:16:31;85090.91;;;19.46;28.44
79142;BME280;68550;-26.480;29.234;2023-08-06T16:18:57;85089.99;;;19.32;28.52
79142;BME280;68550;-26.480;29.234;2023-08-06T16:26:13;85098.37;;;19.46;28.33
79142;BME280;68550;-26.480;29.234;2023-08-06T16:33:30;85104.42;;;19.39;28.30
79142;BME280;68550;-26.480;29.234;2023-08-06T16:35:55;85104.78;;;19.36;28.30
79142;BME280;68550;-26.480;29.234;2023-08-06T16:38:22;85105.13;;;19.38;28.19
79142;BME280;68550;-26.480;29.234;2023-08-06T16:40:53;85106.84;;;19.38;28.14
79142;BME280;68550;-26.480;29.234;2023-08-06T16:43:13;85111.50;;;19.41;28.06
79142;BME280;68550;-26.480;29.234;2023-08-06T16:45:39;85112.12;;;19.34;28.06
79142;BME280;68550;-26.480;29.234;2023-08-06T16:52:53;85120.45;;;19.16;27.94
79142;BME280;68550;-26.480;29.234;2023-08-06T16:55:19;85121.06;;;19.39;27.93
79142;BME280;68550;-26.480;29.234;2023-08-06T16:57:44;85124.00;;;19.33;27.94
79142;BME280;68550;-26.480;29.234;2023-08-06T17:00:12;85125.06;;;19.05;27.94
79142;BME280;68550;-26.480;29.234;2023-08-06T17:02:36;85127.94;;;19.36;27.85
79142;BME280;68550;-26.480;29.234;2023-08-06T17:05:15;85125.73;;;19.37;27.77